Orchid Ace — 7JDE — position and weather

sailwx.info

Track history (hours):
 
Tides and Currents Weather Stations Pressure Air Temp Water Temp Dewpoint Dewpoint Depression Visibility Wind Speed Wind Dir Waves Ship Positions

Orchid Ace

Last reported at 2014-Dec-18 16:33 UTC. Time now 2014-Dec-18 19:30 UTC.
Position S 34°54' W 056°13'.

Length 200 m; draft 8.2 m.

Type: Cargo ship. MMSI: 432651000.

Date/timePositionNaut miles runAvg speedWind from/ knotsBaromVisibWave heightAir tempDewpointWater temp
2014-Dec-18 16:33S 34°54' W 056°13'8 6.9
2014-Dec-18 15:21S 35°01' W 056°08'5 6.3
2014-Dec-18 14:33S 35°04' W 056°02'0 0.1
2014-Dec-18 13:33S 35°04' W 056°02'0 0.0
2014-Dec-18 12:33S 35°04' W 056°03'0 0.0
2014-Dec-18 11:33S 35°04' W 056°03'0 0.0
2014-Dec-18 10:33S 35°04' W 056°03'0 0.0
2014-Dec-18 09:33S 35°04' W 056°03'2 1.8
2014-Dec-18 08:33S 35°05' W 056°04'4413.5
2014-Dec-18 05:19S 35°10' W 056°57'1114.1
2014-Dec-18 04:33S 35°04' W 057°08'1212.4
2014-Dec-18 03:33S 34°54' W 057°18'9 8.6
2014-Dec-18 02:33S 34°49' W 057°26'5 5.4
2014-Dec-18 01:33S 34°46' W 057°32'9 8.6
2014-Dec-18 00:34S 34°44' W 057°42'9 9.2
2014-Dec-17 23:34S 34°42' W 057°53'1414.3
2014-Dec-17 22:34S 34°37' W 058°10'1111.1
2014-Dec-17 21:32S 34°31' W 058°21'0 0.0
2014-Dec-16 10:33S 34°31' W 058°21'1010.4
2014-Dec-16 09:34S 34°37' W 058°11'1211.6
2014-Dec-16 08:33S 34°41' W 057°58'7 6.4
2014-Dec-16 07:31S 34°45' W 057°51'0 0.0
2014-Dec-16 06:31S 34°45' W 057°51'0 0.0
2014-Dec-16 05:26S 34°45' W 057°51'0 0.0
2014-Dec-16 04:20S 34°45' W 057°51'0 0.1
2014-Dec-16 03:32S 34°45' W 057°51'8 8.3
2014-Dec-16 02:33S 34°44' W 057°41'1414.4
2014-Dec-16 01:33S 34°50' W 057°25'2914.1
2014-Dec-15 23:32S 35°10' W 057°00'1414.2
2014-Dec-15 22:31S 35°10' W 056°43'  
2014-Dec-13 15:33S 27°53' W 048°19'1616.5
2014-Dec-13 14:33S 27°37' W 048°15'23214.2
2014-Dec-12 22:17S 24°07' W 046°24'911.9
2014-Dec-12 21:33S 23°60' W 046°19'4 1.0
2014-Dec-12 17:20S 23°56' W 046°20'0 0.0
2014-Dec-12 16:20S 23°56' W 046°20'0 0.0
2014-Dec-12 15:32S 23°56' W 046°20'0 0.2
2014-Dec-12 14:26S 23°56' W 046°20'3 3.3
2014-Dec-12 13:34S 23°58' W 046°18'0 0.0
2014-Dec-12 12:31S 23°58' W 046°18'0 0.0
2014-Dec-12 11:16S 23°58' W 046°18'0 0.0
2014-Dec-12 10:28S 23°58' W 046°18'0 0.0
2014-Dec-12 09:25S 23°58' W 046°18'0 0.0
2014-Dec-12 08:28S 23°58' W 046°18'0 0.0
2014-Dec-12 07:28S 23°58' W 046°18'0 0.0
2014-Dec-12 06:19S 23°58' W 046°18'3 4.3
2014-Dec-12 05:33S 24°00' W 046°20'8 7.6
2014-Dec-12 04:33S 24°05' W 046°14'  
Track history (hours):
 
Tides and Currents Weather Stations Pressure Air Temp Water Temp Dewpoint Dewpoint Depression Visibility Wind Speed Wind Dir Waves Ship Positions

Orchid Ace

Last reported at 2014-Dec-18 16:33 UTC. Time now 2014-Dec-18 19:30 UTC.
Position S 34°54' W 056°13'.

Length 200 m; draft 8.2 m.

Type: Cargo ship. MMSI: 432651000.

Date/timePositionNaut miles runAvg speedWind from/ knotsBaromVisibWave heightAir tempDewpointWater temp
2014-Dec-18 16:33S 34°54' W 056°13'8 6.9
2014-Dec-18 15:21S 35°01' W 056°08'5 6.3
2014-Dec-18 14:33S 35°04' W 056°02'0 0.1
2014-Dec-18 13:33S 35°04' W 056°02'0 0.0
2014-Dec-18 12:33S 35°04' W 056°03'0 0.0
2014-Dec-18 11:33S 35°04' W 056°03'0 0.0
2014-Dec-18 10:33S 35°04' W 056°03'0 0.0
2014-Dec-18 09:33S 35°04' W 056°03'2 1.8
2014-Dec-18 08:33S 35°05' W 056°04'4413.5
2014-Dec-18 05:19S 35°10' W 056°57'1114.1
2014-Dec-18 04:33S 35°04' W 057°08'1212.4
2014-Dec-18 03:33S 34°54' W 057°18'9 8.6
2014-Dec-18 02:33S 34°49' W 057°26'5 5.4
2014-Dec-18 01:33S 34°46' W 057°32'9 8.6
2014-Dec-18 00:34S 34°44' W 057°42'9 9.2
2014-Dec-17 23:34S 34°42' W 057°53'1414.3
2014-Dec-17 22:34S 34°37' W 058°10'1111.1
2014-Dec-17 21:32S 34°31' W 058°21'0 0.0
2014-Dec-16 10:33S 34°31' W 058°21'1010.4
2014-Dec-16 09:34S 34°37' W 058°11'1211.6
2014-Dec-16 08:33S 34°41' W 057°58'7 6.4
2014-Dec-16 07:31S 34°45' W 057°51'0 0.0
2014-Dec-16 06:31S 34°45' W 057°51'0 0.0
2014-Dec-16 05:26S 34°45' W 057°51'0 0.0
2014-Dec-16 04:20S 34°45' W 057°51'0 0.1
2014-Dec-16 03:32S 34°45' W 057°51'8 8.3
2014-Dec-16 02:33S 34°44' W 057°41'1414.4
2014-Dec-16 01:33S 34°50' W 057°25'2914.1
2014-Dec-15 23:32S 35°10' W 057°00'1414.2
2014-Dec-15 22:31S 35°10' W 056°43'  
2014-Dec-13 15:33S 27°53' W 048°19'1616.5
2014-Dec-13 14:33S 27°37' W 048°15'23214.2
2014-Dec-12 22:17S 24°07' W 046°24'911.9
2014-Dec-12 21:33S 23°60' W 046°19'4 1.0
2014-Dec-12 17:20S 23°56' W 046°20'0 0.0
2014-Dec-12 16:20S 23°56' W 046°20'0 0.0
2014-Dec-12 15:32S 23°56' W 046°20'0 0.2
2014-Dec-12 14:26S 23°56' W 046°20'3 3.3
2014-Dec-12 13:34S 23°58' W 046°18'0 0.0
2014-Dec-12 12:31S 23°58' W 046°18'0 0.0
2014-Dec-12 11:16S 23°58' W 046°18'0 0.0
2014-Dec-12 10:28S 23°58' W 046°18'0 0.0
2014-Dec-12 09:25S 23°58' W 046°18'0 0.0
2014-Dec-12 08:28S 23°58' W 046°18'0 0.0
2014-Dec-12 07:28S 23°58' W 046°18'0 0.0
2014-Dec-12 06:19S 23°58' W 046°18'3 4.3
2014-Dec-12 05:33S 24°00' W 046°20'8 7.6
2014-Dec-12 04:33S 24°05' W 046°14'  

Dump ship's entire track history